Time;durP1;ratioP1;P1;durP2;ratioP2;P2;SDS_P1;SDS_P2;PMS_P1;PMS_P2;Temp;Humidity;BMP_temperature;BMP_pressure;BME280_temperature;BME280_humidity;BME280_pressure;Samples;Min_cycle;Max_cycle;Signal;HPM_P1;HPM_P2
2022/11/25 00:01:21;;;;;;;6.00;5.40;;;17.40;73.10;;;;;;5034113;28;20186;-69
2022/11/25 00:03:48;;;;;;;7.18;6.22;;;17.50;73.30;;;;;;5017343;28;20186;-69
2022/11/25 00:06:29;;;;;;;6.63;5.95;;;17.40;73.00;;;;;;5033903;28;20260;-69
2022/11/25 00:09:08;;;;;;;6.80;6.13;;;17.40;73.00;;;;;;5033995;28;20189;-69
2022/11/25 00:11:38;;;;;;;7.18;5.95;;;17.40;72.80;;;;;;5034129;28;20261;-69
2022/11/25 00:14:05;;;;;;;8.07;5.80;;;17.40;72.70;;;;;;5033689;28;20214;-68
2022/11/25 00:16:31;;;;;;;7.35;6.35;;;17.40;72.80;;;;;;5034175;28;20183;-69
2022/11/25 00:18:57;;;;;;;6.43;5.75;;;17.40;72.70;;;;;;5034261;28;20214;-69
2022/11/25 00:21:28;;;;;;;6.13;5.57;;;17.40;72.80;;;;;;5051824;28;20181;-69
2022/11/25 00:24:02;;;;;;;5.97;5.38;;;17.40;72.50;;;;;;5033860;28;20225;-69
2022/11/25 00:26:31;;;;;;;6.10;5.50;;;17.40;72.80;;;;;;5033971;28;20563;-69
2022/11/25 00:29:00;;;;;;;5.80;5.25;;;17.40;72.80;;;;;;5032377;28;20193;-69
2022/11/25 00:31:31;;;;;;;6.15;5.57;;;17.40;72.70;;;;;;5035691;28;20615;-69
2022/11/25 00:33:57;;;;;;;5.97;5.10;;;17.40;73.50;;;;;;5054091;28;20183;-69
2022/11/25 00:36:30;;;;;;;6.15;5.40;;;17.40;72.60;;;;;;5037480;28;20183;-69
2022/11/25 00:39:03;;;;;;;6.00;5.40;;;17.40;72.60;;;;;;5054081;28;20195;-69
2022/11/25 00:44:34;;;;;;;6.15;5.55;;;17.40;72.50;;;;;;5055028;28;20262;-68
2022/11/25 00:47:20;;;;;;;6.05;5.45;;;17.40;72.30;;;;;;5037516;28;20253;-69
2022/11/25 00:49:52;;;;;;;6.47;5.80;;;17.40;73.10;;;;;;5020619;28;20188;-69
2022/11/25 00:52:26;;;;;;;6.18;5.57;;;17.40;72.30;;;;;;5020659;28;20204;-68
2022/11/25 00:54:53;;;;;;;7.47;5.75;;;17.40;72.40;;;;;;5053614;28;20253;-68
2022/11/25 00:57:22;;;;;;;6.43;5.65;;;17.40;72.30;;;;;;5020494;28;20760;-68
2022/11/25 00:59:48;;;;;;;7.03;5.93;;;17.40;72.20;;;;;;5037325;28;20205;-69
2022/11/25 01:02:16;;;;;;;6.93;5.93;;;17.40;72.20;;;;;;5036692;28;20182;-68
2022/11/25 01:04:43;;;;;;;6.80;6.15;;;17.40;72.10;;;;;;5053509;28;20693;-69
2022/11/25 01:07:09;;;;;;;7.60;6.35;;;17.40;72.40;;;;;;5036868;28;20183;-69
2022/11/25 01:09:36;;;;;;;7.38;6.20;;;17.40;72.10;;;;;;5036938;28;20185;-69
2022/11/25 01:12:03;;;;;;;8.02;6.10;;;17.40;72.00;;;;;;5037095;28;20167;-67
2022/11/25 01:14:30;;;;;;;7.28;6.47;;;17.40;72.20;;;;;;5036353;28;20204;-69
2022/11/25 01:16:55;;;;;;;8.90;6.40;;;17.40;72.00;;;;;;5036677;28;20217;-68
2022/11/25 01:19:22;;;;;;;7.00;6.30;;;17.40;71.90;;;;;;5036545;28;20237;-69
2022/11/25 01:21:48;;;;;;;7.65;6.18;;;17.40;71.80;;;;;;5053243;28;20254;-69
2022/11/25 01:24:16;;;;;;;8.13;5.60;;;17.40;71.80;;;;;;5036575;28;20294;-69
2022/11/25 01:26:43;;;;;;;7.28;6.10;;;17.40;71.80;;;;;;5036432;28;20214;-69
2022/11/25 01:29:16;;;;;;;7.25;5.97;;;17.40;71.70;;;;;;5019841;28;20273;-68
2022/11/25 01:31:43;;;;;;;6.50;5.78;;;17.40;71.80;;;;;;5019813;28;20186;-69
2022/11/25 01:34:21;;;;;;;7.13;6.03;;;17.40;71.80;;;;;;5036121;28;20225;-68
2022/11/25 01:36:47;;;;;;;7.57;6.00;;;17.30;71.80;;;;;;5036377;28;20225;-69
2022/11/25 01:39:20;;;;;;;7.50;6.03;;;17.40;71.80;;;;;;5036220;28;20238;-69
2022/11/25 01:41:47;;;;;;;7.65;5.95;;;17.40;71.80;;;;;;5036154;28;20189;-69
2022/11/25 01:44:24;;;;;;;7.00;5.95;;;17.40;71.80;;;;;;5035848;28;20185;-68
2022/11/25 01:47:11;;;;;;;6.15;5.50;;;17.40;71.70;;;;;;5036298;28;20205;-69
2022/11/25 01:49:49;;;;;;;7.18;5.82;;;17.40;71.70;;;;;;5036401;28;20266;-68
2022/11/25 01:52:43;;;;;;;6.82;5.63;;;17.30;71.40;;;;;;5053452;28;20197;-68
2022/11/25 01:55:16;;;;;;;6.15;5.28;;;17.40;71.60;;;;;;5028819;28;20287;-69
2022/11/25 01:57:49;;;;;;;7.30;6.15;;;17.40;71.60;;;;;;5035814;28;20198;-69
2022/11/25 02:00:16;;;;;;;6.55;5.55;;;17.40;71.60;;;;;;5036039;28;20195;-69
2022/11/25 02:02:48;;;;;;;5.85;5.25;;;17.40;71.60;;;;;;5052604;28;20228;-69
2022/11/25 02:05:21;;;;;;;6.32;5.70;;;17.30;71.40;;;;;;5035746;28;20199;-69
2022/11/25 02:07:51;;;;;;;5.97;5.30;;;17.40;71.60;;;;;;5035640;28;20182;-69
2022/11/25 02:10:25;;;;;;;6.82;6.15;;;17.30;71.30;;;;;;5035502;28;20193;-68
2022/11/25 02:12:52;;;;;;;6.93;5.72;;;17.40;71.30;;;;;;5035761;28;20244;-68
2022/11/25 02:15:19;;;;;;;6.82;5.70;;;17.40;71.40;;;;;;5019095;28;20585;-69
2022/11/25 02:17:45;;;;;;;7.72;6.05;;;17.40;71.40;;;;;;5018918;28;20218;-69
2022/11/25 02:20:18;;;;;;;6.43;5.82;;;17.30;71.20;;;;;;5035776;28;20183;-69
2022/11/25 02:23:13;;;;;;;6.97;5.60;;;17.40;71.30;;;;;;5019018;28;20208;-68
2022/11/25 02:25:44;;;;;;;8.23;6.28;;;17.30;71.10;;;;;;5035429;28;20245;-69
2022/11/25 02:28:18;;;;;;;7.93;5.82;;;17.40;71.40;;;;;;5035375;28;20202;-69
2022/11/25 02:30:45;;;;;;;6.50;5.82;;;17.30;71.30;;;;;;5053316;28;20234;-69
2022/11/25 02:33:13;;;;;;;7.13;5.72;;;17.30;71.20;;;;;;5035001;28;20653;-69
2022/11/25 02:35:53;;;;;;;8.25;6.18;;;17.40;71.20;;;;;;5035137;28;20248;-69
2022/11/25 02:38:49;;;;;;;7.90;6.35;;;17.30;71.10;;;;;;5035336;28;20212;-68
2022/11/25 02:41:33;;;;;;;6.75;6.05;;;17.30;71.00;;;;;;5018051;28;20293;-69
2022/11/25 02:44:03;;;;;;;6.57;5.65;;;17.40;71.10;;;;;;5035015;28;20689;-69
2022/11/25 02:46:30;;;;;;;7.25;5.88;;;17.30;71.00;;;;;;5018532;28;20265;-68
2022/11/25 02:48:58;;;;;;;7.15;6.03;;;17.40;71.20;;;;;;5018528;28;20205;-69
2022/11/25 02:51:28;;;;;;;7.70;5.75;;;17.40;71.10;;;;;;5034867;28;20182;-69
2022/11/25 02:53:55;;;;;;;6.43;5.32;;;17.30;71.00;;;;;;5034381;28;20198;-69
2022/11/25 02:56:27;;;;;;;9.20;6.30;;;17.30;71.00;;;;;;5036053;28;20179;-69
2022/11/25 02:58:53;;;;;;;6.28;5.40;;;17.30;71.00;;;;;;5034843;28;20268;-69
2022/11/25 03:01:19;;;;;;;7.72;5.35;;;17.40;71.00;;;;;;5035146;28;20178;-69
2022/11/25 03:03:48;;;;;;;6.30;5.60;;;17.30;71.00;;;;;;5018416;28;20186;-69
2022/11/25 03:06:14;;;;;;;5.88;5.28;;;17.30;70.90;;;;;;5018401;28;20203;-69
2022/11/25 03:08:40;;;;;;;6.45;5.57;;;17.30;70.90;;;;;;5034700;28;20273;-68
2022/11/25 03:11:09;;;;;;;7.53;5.65;;;17.30;70.90;;;;;;5034589;28;20183;-69
2022/11/25 03:13:35;;;;;;;7.32;5.68;;;17.40;70.90;;;;;;5034778;28;20278;-69
2022/11/25 03:16:02;;;;;;;6.72;5.65;;;17.30;70.80;;;;;;5018493;28;20214;-68
2022/11/25 03:18:28;;;;;;;7.68;5.60;;;17.30;70.70;;;;;;5034590;28;20206;-68
2022/11/25 03:20:55;;;;;;;7.00;5.63;;;17.40;70.80;;;;;;5034800;28;20191;-68
2022/11/25 03:23:23;;;;;;;6.43;5.55;;;17.40;70.80;;;;;;5034720;28;20183;-69
2022/11/25 03:25:53;;;;;;;7.78;5.90;;;17.30;70.50;;;;;;5034648;28;20205;-69
2022/11/25 03:28:18;;;;;;;6.95;5.38;;;17.30;70.60;;;;;;5034300;28;20198;-69
2022/11/25 03:30:45;;;;;;;6.28;5.28;;;17.30;70.70;;;;;;5033033;28;20225;-68
2022/11/25 03:33:11;;;;;;;6.93;5.78;;;17.30;70.80;;;;;;5050550;28;20320;-69
2022/11/25 03:35:37;;;;;;;5.95;5.35;;;17.30;70.80;;;;;;5051013;28;20293;-69
2022/11/25 03:38:03;;;;;;;7.45;5.35;;;17.30;70.70;;;;;;5018139;28;20245;-68
2022/11/25 03:40:32;;;;;;;6.32;5.20;;;17.30;70.70;;;;;;5034481;28;20194;-69
2022/11/25 03:42:58;;;;;;;6.70;5.45;;;17.30;70.70;;;;;;5034496;28;20190;-68
2022/11/25 03:45:24;;;;;;;6.35;5.30;;;17.30;70.70;;;;;;5050998;28;20743;-68
2022/11/25 03:47:50;;;;;;;5.60;4.90;;;17.40;70.80;;;;;;5034375;28;20190;-69
2022/11/25 03:50:16;;;;;;;6.35;4.82;;;17.30;70.60;;;;;;5034592;28;20186;-68
2022/11/25 03:52:44;;;;;;;6.05;4.95;;;17.30;70.60;;;;;;5034227;28;20186;-69
2022/11/25 03:55:11;;;;;;;6.03;5.30;;;17.30;70.40;;;;;;5034227;28;20221;-68
2022/11/25 03:57:39;;;;;;;5.75;4.55;;;17.40;70.60;;;;;;5033986;28;20210;-69
2022/11/25 04:00:08;;;;;;;6.25;4.70;;;17.30;70.60;;;;;;5034402;28;20179;-69
2022/11/25 04:02:43;;;;;;;6.40;4.80;;;17.40;70.60;;;;;;5035486;28;20175;-69
2022/11/25 04:05:10;;;;;;;5.75;4.63;;;17.40;70.60;;;;;;5034268;28;20206;-69
2022/11/25 04:07:35;;;;;;;5.47;4.72;;;17.40;70.50;;;;;;5055523;28;20163;-69
2022/11/25 04:10:03;;;;;;;4.78;4.18;;;17.30;70.40;;;;;;5052823;28;20277;-69
2022/11/25 04:12:46;;;;;;;6.30;5.05;;;17.30;70.40;;;;;;5037798;28;20191;-69
2022/11/25 04:15:17;;;;;;;7.05;4.63;;;17.30;70.40;;;;;;5037770;28;20202;-69
2022/11/25 04:17:47;;;;;;;5.57;4.20;;;17.30;70.40;;;;;;5021863;28;20206;-69
2022/11/25 04:20:14;;;;;;;5.80;4.43;;;17.40;70.60;;;;;;5054617;28;20209;-69
2022/11/25 04:22:44;;;;;;;5.10;4.55;;;17.40;70.70;;;;;;5021640;28;20167;-68
2022/11/25 04:25:11;;;;;;;5.18;4.40;;;17.30;70.50;;;;;;5021209;28;20289;-68
2022/11/25 04:27:37;;;;;;;6.43;4.78;;;17.30;71.30;;;;;;5037505;28;20210;-69
2022/11/25 04:30:05;;;;;;;5.68;4.68;;;17.30;70.40;;;;;;5037577;28;20182;-69
2022/11/25 04:32:37;;;;;;;4.40;3.80;;;17.40;70.50;;;;;;5037857;28;20171;-68
2022/11/25 04:35:04;;;;;;;5.00;3.85;;;17.30;70.30;;;;;;5037814;28;20213;-69
2022/11/25 04:37:30;;;;;;;5.10;4.22;;;17.40;70.20;;;;;;5037630;28;20178;-68
2022/11/25 04:39:57;;;;;;;4.80;4.10;;;17.40;70.40;;;;;;5054126;28;20187;-69
2022/11/25 04:42:32;;;;;;;4.93;3.92;;;17.30;70.30;;;;;;5037232;28;20209;-68
2022/11/25 04:45:01;;;;;;;4.20;3.80;;;17.40;70.40;;;;;;5037561;28;20248;-69
2022/11/25 04:47:28;;;;;;;4.35;3.92;;;17.30;70.30;;;;;;5020724;28;20236;-69
2022/11/25 04:49:55;;;;;;;4.25;3.85;;;17.30;70.10;;;;;;5020664;28;20676;-69
2022/11/25 04:52:21;;;;;;;4.88;3.88;;;17.30;70.50;;;;;;5037396;28;20186;-69
2022/11/25 04:54:47;;;;;;;5.15;4.03;;;17.30;70.10;;;;;;5036793;28;20206;-69
2022/11/25 04:57:14;;;;;;;4.30;3.50;;;17.30;70.40;;;;;;5036980;28;20228;-69
2022/11/25 04:59:43;;;;;;;5.20;3.40;;;17.30;70.30;;;;;;5053882;28;20214;-69
2022/11/25 05:02:19;;;;;;;5.25;3.75;;;17.30;70.20;;;;;;5036858;28;20189;-69
2022/11/25 05:04:56;;;;;;;5.07;4.15;;;17.30;70.30;;;;;;5036946;28;20264;-68
2022/11/25 05:07:25;;;;;;;4.22;3.40;;;17.30;70.40;;;;;;5037456;28;20178;-69
2022/11/25 05:09:54;;;;;;;4.72;3.78;;;17.30;70.20;;;;;;5036917;28;20212;-69
2022/11/25 05:12:42;;;;;;;3.95;3.60;;;17.30;70.90;;;;;;5039940;28;20261;-68
2022/11/25 05:15:13;;;;;;;3.72;3.33;;;17.40;70.10;;;;;;5037358;28;20214;-69
2022/11/25 05:17:41;;;;;;;4.25;3.50;;;17.40;70.10;;;;;;5036366;28;20218;-69
2022/11/25 05:20:09;;;;;;;5.35;3.80;;;17.30;70.00;;;;;;5037085;28;20249;-69
2022/11/25 05:22:35;;;;;;;4.15;3.25;;;17.30;70.00;;;;;;5036239;28;20179;-68
2022/11/25 05:25:06;;;;;;;3.58;3.08;;;17.40;70.10;;;;;;5036807;28;20769;-68
2022/11/25 05:27:37;;;;;;;4.63;3.42;;;17.30;70.00;;;;;;5037237;28;20175;-69
2022/11/25 05:30:08;;;;;;;3.08;2.72;;;17.30;70.00;;;;;;5053143;28;20236;-68
2022/11/25 05:32:34;;;;;;;3.95;2.72;;;17.30;70.00;;;;;;5036043;28;20270;-68
2022/11/25 05:35:04;;;;;;;4.25;3.35;;;17.30;70.00;;;;;;5021015;28;20194;-69
2022/11/25 05:37:30;;;;;;;4.03;3.08;;;17.30;70.00;;;;;;5036025;28;20178;-69
2022/11/25 05:40:03;;;;;;;4.07;3.42;;;17.30;70.20;;;;;;5036160;28;20178;-69
2022/11/25 05:42:47;;;;;;;3.17;2.88;;;17.30;70.00;;;;;;5038609;28;20171;-68
2022/11/25 05:45:13;;;;;;;3.65;3.17;;;17.30;70.00;;;;;;5036066;28;20202;-69
2022/11/25 05:47:39;;;;;;;3.38;3.05;;;17.30;70.00;;;;;;5019547;28;20669;-69
2022/11/25 05:50:07;;;;;;;3.22;2.92;;;17.30;70.00;;;;;;5020089;28;20638;-68
2022/11/25 05:52:33;;;;;;;3.35;3.05;;;17.30;70.00;;;;;;5035929;28;20243;-68
2022/11/25 05:55:00;;;;;;;4.57;3.08;;;17.30;70.00;;;;;;5019556;28;20222;-69
2022/11/25 05:57:27;;;;;;;3.58;3.08;;;17.40;70.10;;;;;;5035758;28;20182;-69
2022/11/25 05:59:56;;;;;;;3.65;3.05;;;17.40;70.10;;;;;;5035829;28;20228;-69
2022/11/25 06:02:41;;;;;;;3.55;2.88;;;17.30;70.00;;;;;;5052397;28;20240;-69
2022/11/25 06:05:08;;;;;;;2.90;2.63;;;17.30;70.00;;;;;;5035727;28;20285;-70
2022/11/25 06:07:35;;;;;;;3.03;2.72;;;17.30;70.00;;;;;;5036082;28;20175;-70
2022/11/25 06:10:01;;;;;;;3.58;2.47;;;17.40;70.10;;;;;;5053466;28;20182;-69
2022/11/25 06:12:27;;;;;;;3.65;2.72;;;17.30;70.00;;;;;;5035893;28;20179;-69
2022/11/25 06:14:53;;;;;;;4.20;3.15;;;17.30;70.00;;;;;;5018925;28;20241;-69
2022/11/25 06:17:18;;;;;;;3.72;2.88;;;17.40;70.10;;;;;;5034100;28;20269;-70
2022/11/25 06:19:50;;;;;;;3.20;2.90;;;17.40;70.10;;;;;;5034895;28;20198;-70
2022/11/25 06:22:16;;;;;;;3.53;2.55;;;17.40;70.10;;;;;;5034993;28;20179;-70
2022/11/25 06:24:42;;;;;;;3.22;2.92;;;17.30;70.00;;;;;;5033830;28;20197;-70
2022/11/25 06:27:08;;;;;;;2.55;2.35;;;17.40;70.10;;;;;;5034584;28;20193;-69
2022/11/25 06:29:35;;;;;;;3.47;3.17;;;17.40;70.10;;;;;;5034152;28;20217;-70
2022/11/25 06:32:02;;;;;;;3.75;3.00;;;17.40;70.10;;;;;;5034916;28;20210;-71
2022/11/25 06:34:43;;;;;;;3.45;2.70;;;17.30;70.00;;;;;;5018851;28;20228;-70
2022/11/25 06:37:33;;;;;;;2.38;2.00;;;17.30;70.00;;;;;;5038086;28;20213;-71
2022/11/25 06:39:59;;;;;;;2.63;2.42;;;17.30;70.00;;;;;;5051505;28;20209;-71
2022/11/25 06:42:26;;;;;;;3.30;2.90;;;17.30;70.00;;;;;;5034731;28;20236;-70
2022/11/25 06:44:52;;;;;;;3.28;2.53;;;17.40;70.10;;;;;;5034486;28;20203;-70
2022/11/25 06:47:17;;;;;;;2.53;2.33;;;17.30;70.00;;;;;;5052299;28;20175;-70
2022/11/25 06:49:43;;;;;;;2.53;2.33;;;17.40;70.10;;;;;;5034602;28;20190;-71
2022/11/25 06:52:09;;;;;;;4.57;2.80;;;17.30;70.00;;;;;;5034542;28;20217;-71
2022/11/25 06:54:39;;;;;;;2.42;2.20;;;17.40;70.10;;;;;;5051994;28;20299;-71
2022/11/25 06:57:10;;;;;;;3.35;2.55;;;17.40;70.10;;;;;;5034506;28;20190;-71
2022/11/25 06:59:36;;;;;;;2.72;2.42;;;17.30;70.00;;;;;;5034214;28;20795;-70
2022/11/25 07:02:03;;;;;;;2.85;2.50;;;17.40;70.10;;;;;;5034372;28;20244;-71
2022/11/25 07:04:30;;;;;;;2.55;2.17;;;17.40;70.10;;;;;;5017556;28;20198;-71
2022/11/25 07:06:55;;;;;;;3.90;2.30;;;17.30;70.00;;;;;;5034330;28;20185;-70
2022/11/25 07:09:21;;;;;;;3.15;2.65;;;17.40;70.10;;;;;;5034348;28;20186;-71
2022/11/25 07:11:47;;;;;;;2.83;2.42;;;17.30;70.00;;;;;;5051094;28;20261;-70
2022/11/25 07:14:15;;;;;;;2.78;2.58;;;17.40;70.10;;;;;;5017509;28;20190;-70
2022/11/25 07:16:44;;;;;;;3.60;2.50;;;17.40;70.10;;;;;;5050645;28;20639;-70
2022/11/25 07:19:14;;;;;;;3.63;2.60;;;17.40;70.10;;;;;;5017623;28;20282;-70
2022/11/25 07:21:43;;;;;;;4.32;2.80;;;17.30;70.00;;;;;;5034399;28;20183;-71
2022/11/25 07:24:12;;;;;;;2.95;2.55;;;17.40;70.10;;;;;;5050296;28;20190;-70
2022/11/25 07:26:41;;;;;;;2.72;2.45;;;17.40;70.10;;;;;;5033781;28;20198;-70
2022/11/25 07:29:13;;;;;;;4.07;2.78;;;17.40;70.10;;;;;;5034057;28;20233;-70
2022/11/25 07:31:43;;;;;;;2.78;2.50;;;17.30;70.00;;;;;;5034097;28;20187;-70
2022/11/25 07:34:19;;;;;;;2.85;2.30;;;17.40;70.10;;;;;;5033497;28;20201;-70
2022/11/25 07:36:47;;;;;;;3.35;2.75;;;17.40;70.10;;;;;;5017426;28;20737;-71
2022/11/25 07:39:18;;;;;;;2.38;2.15;;;17.40;70.10;;;;;;5033951;28;20214;-71
2022/11/25 07:41:47;;;;;;;2.90;2.70;;;17.40;70.10;;;;;;5025896;28;20188;-70
2022/11/25 07:44:14;;;;;;;4.50;2.78;;;17.40;70.10;;;;;;5040069;28;20186;-71
2022/11/25 07:46:50;;;;;;;3.20;2.90;;;17.40;70.10;;;;;;5057114;28;20177;-70
2022/11/25 07:49:20;;;;;;;3.30;2.80;;;17.40;70.10;;;;;;5023909;28;20186;-71
2022/11/25 07:51:52;;;;;;;3.35;2.80;;;17.40;70.90;;;;;;5058288;28;20178;-71
2022/11/25 07:54:19;;;;;;;3.60;2.88;;;17.40;70.10;;;;;;5039981;28;20256;-71
2022/11/25 07:56:47;;;;;;;2.85;2.38;;;17.40;70.10;;;;;;5023671;28;20230;-70
2022/11/25 07:59:18;;;;;;;3.42;2.90;;;17.40;70.10;;;;;;5039876;28;20304;-71
2022/11/25 08:01:44;;;;;;;2.92;2.65;;;17.40;70.10;;;;;;5040271;28;20182;-70
2022/11/25 08:04:12;;;;;;;3.90;2.72;;;17.40;70.10;;;;;;5040345;28;20197;-70
2022/11/25 08:06:43;;;;;;;3.78;3.13;;;17.40;70.10;;;;;;5058180;28;20368;-70
2022/11/25 08:09:12;;;;;;;3.05;2.75;;;17.40;70.10;;;;;;5058222;28;20186;-71
2022/11/25 08:11:41;;;;;;;3.38;2.75;;;17.40;70.10;;;;;;5058123;28;20217;-71
2022/11/25 08:14:07;;;;;;;3.85;2.88;;;17.40;70.10;;;;;;5023433;28;20324;-70
2022/11/25 08:16:33;;;;;;;3.55;2.83;;;17.40;70.10;;;;;;5040099;28;20182;-71
2022/11/25 08:19:03;;;;;;;3.95;2.95;;;17.40;70.10;;;;;;5040256;28;20210;-71
2022/11/25 08:21:29;;;;;;;3.63;3.10;;;17.40;70.10;;;;;;5040277;28;20194;-70
2022/11/25 08:23:55;;;;;;;3.80;3.40;;;17.40;70.10;;;;;;5057902;28;20167;-71
2022/11/25 08:26:26;;;;;;;3.40;3.10;;;17.40;70.10;;;;;;5056633;28;20209;-70
2022/11/25 08:28:53;;;;;;;3.85;3.45;;;17.40;70.10;;;;;;5040210;28;20566;-71
2022/11/25 08:31:25;;;;;;;3.63;3.33;;;17.40;70.10;;;;;;5056889;28;20190;-70
2022/11/25 08:33:52;;;;;;;3.90;3.50;;;17.40;70.10;;;;;;5022899;28;20190;-71
2022/11/25 08:36:19;;;;;;;3.95;3.22;;;17.40;70.10;;;;;;5040000;28;20201;-70
2022/11/25 08:38:48;;;;;;;3.63;3.20;;;17.50;70.20;;;;;;5039943;28;20256;-71
2022/11/25 08:41:22;;;;;;;3.85;3.45;;;17.40;70.10;;;;;;5039954;28;20221;-71
2022/11/25 08:43:49;;;;;;;4.03;3.15;;;17.40;70.10;;;;;;5023255;28;20340;-71
2022/11/25 08:46:23;;;;;;;4.60;3.53;;;17.40;70.10;;;;;;5057652;28;20206;-71
2022/11/25 08:48:49;;;;;;;3.45;2.80;;;17.40;70.10;;;;;;5040028;28;20236;-71
2022/11/25 08:51:20;;;;;;;3.38;3.05;;;17.40;70.10;;;;;;5038693;28;20178;-70
2022/11/25 08:53:46;;;;;;;4.53;2.90;;;17.40;70.10;;;;;;5020159;28;20212;-71
2022/11/25 08:56:13;;;;;;;3.42;3.08;;;17.40;70.10;;;;;;5037767;28;20218;-71
2022/11/25 08:58:39;;;;;;;4.93;3.40;;;17.50;70.20;;;;;;5036626;28;20225;-71
2022/11/25 09:01:06;;;;;;;2.75;2.50;;;17.40;70.10;;;;;;5036832;28;20178;-70
2022/11/25 09:03:37;;;;;;;3.50;3.00;;;17.50;70.20;;;;;;5036406;28;20182;-71
2022/11/25 09:06:06;;;;;;;3.40;2.78;;;17.40;70.10;;;;;;5036419;28;20217;-71
2022/11/25 09:08:32;;;;;;;3.58;3.28;;;17.50;70.20;;;;;;5036709;28;20178;-71
2022/11/25 09:10:59;;;;;;;2.83;2.60;;;17.50;70.20;;;;;;5036705;28;20194;-71
2022/11/25 09:13:25;;;;;;;3.83;3.28;;;17.50;70.20;;;;;;5036185;28;20213;-71
2022/11/25 09:15:50;;;;;;;3.70;3.35;;;17.50;70.20;;;;;;5036288;28;20234;-70
2022/11/25 09:18:19;;;;;;;3.20;2.90;;;17.50;70.20;;;;;;5036253;28;20259;-71
2022/11/25 09:20:46;;;;;;;3.33;3.03;;;17.40;70.10;;;;;;5036234;28;20182;-71
2022/11/25 09:23:12;;;;;;;3.20;2.70;;;17.50;70.20;;;;;;5036286;28;20266;-71
2022/11/25 09:25:38;;;;;;;4.35;3.08;;;17.40;70.10;;;;;;5036130;28;20206;-70
2022/11/25 09:28:04;;;;;;;3.75;3.30;;;17.50;70.20;;;;;;5035984;28;20198;-71
2022/11/25 09:30:31;;;;;;;2.92;2.60;;;17.50;70.20;;;;;;5053755;28;20540;-71
2022/11/25 09:32:57;;;;;;;3.78;3.20;;;17.50;70.20;;;;;;5053622;28;20194;-70
2022/11/25 09:35:24;;;;;;;3.72;2.92;;;17.50;70.20;;;;;;5021921;28;20206;-71
2022/11/25 09:37:50;;;;;;;3.40;2.88;;;17.50;70.20;;;;;;5035918;28;20206;-71
2022/11/25 09:40:34;;;;;;;4.22;2.85;;;17.50;70.20;;;;;;5035861;28;20179;-71
2022/11/25 09:46:54;;;;;;;3.65;3.22;;;17.50;70.20;;;;;;5052352;28;20193;-70
2022/11/25 09:49:29;;;;;;;3.35;3.00;;;17.50;70.20;;;;;;5035479;28;20182;-70
2022/11/25 09:52:30;;;;;;;3.30;3.00;;;17.50;70.20;;;;;;5032458;28;20187;-71
2022/11/25 09:55:10;;;;;;;3.72;3.05;;;17.60;70.30;;;;;;5015617;28;20230;-71
2022/11/25 09:58:04;;;;;;;3.50;2.92;;;17.50;70.20;;;;;;5033441;28;20163;-71
2022/11/25 10:00:56;;;;;;;4.40;3.42;;;17.60;70.30;;;;;;5033051;28;20191;-70
2022/11/25 10:03:39;;;;;;;3.88;2.63;;;17.60;70.30;;;;;;5013422;28;20195;-71
2022/11/25 10:06:26;;;;;;;3.50;2.88;;;17.60;70.30;;;;;;5015656;28;20310;-71
2022/11/25 10:08:57;;;;;;;3.22;2.70;;;17.60;70.30;;;;;;5015652;28;20670;-71
2022/11/25 10:11:45;;;;;;;3.33;2.95;;;17.60;70.50;;;;;;5015519;28;20187;-71
2022/11/25 10:14:31;;;;;;;3.63;2.55;;;17.60;70.40;;;;;;5031953;28;20183;-71
2022/11/25 10:17:17;;;;;;;3.00;2.65;;;17.60;70.50;;;;;;5015533;28;20172;-71
2022/11/25 10:20:11;;;;;;;3.25;2.65;;;17.60;70.60;;;;;;5036360;28;20681;-71
2022/11/25 10:22:42;;;;;;;3.40;2.42;;;17.60;70.50;;;;;;5035158;28;20186;-71
2022/11/25 10:25:21;;;;;;;2.95;2.65;;;17.60;70.50;;;;;;5034962;28;20229;-71
2022/11/25 10:27:55;;;;;;;2.70;2.33;;;17.60;70.60;;;;;;5051677;28;20253;-71
2022/11/25 10:30:25;;;;;;;3.17;2.40;;;17.70;70.80;;;;;;5052528;28;20250;-71
2022/11/25 10:33:22;;;;;;;3.13;2.67;;;17.70;70.80;;;;;;5051348;28;20174;-71
2022/11/25 10:36:01;;;;;;;2.80;2.60;;;17.60;70.70;;;;;;5018536;28;20202;-71
2022/11/25 10:38:41;;;;;;;2.70;2.40;;;17.60;70.80;;;;;;5034899;28;20269;-70
2022/11/25 10:41:17;;;;;;;2.75;2.40;;;17.60;70.70;;;;;;5034842;28;20191;-71
2022/11/25 10:43:46;;;;;;;3.25;2.55;;;17.60;70.70;;;;;;5034559;28;20711;-71
2022/11/25 10:46:39;;;;;;;2.33;2.10;;;17.70;70.90;;;;;;5034497;28;20549;-71
2022/11/25 10:49:40;;;;;;;2.95;2.55;;;17.60;70.70;;;;;;5051265;28;20186;-71
2022/11/25 10:52:12;;;;;;;3.00;2.35;;;17.70;70.90;;;;;;5018138;28;20190;-71
2022/11/25 10:54:38;;;;;;;3.38;2.30;;;17.70;71.00;;;;;;5017649;28;20275;-71
2022/11/25 10:57:19;;;;;;;2.92;2.60;;;17.70;70.90;;;;;;5034544;28;20186;-71
2022/11/25 11:00:23;;;;;;;2.40;2.20;;;17.70;70.90;;;;;;5034266;28;20214;-71
2022/11/25 11:02:49;;;;;;;1.98;1.85;;;17.70;71.00;;;;;;5034374;28;20225;-71
2022/11/25 11:05:30;;;;;;;3.25;2.20;;;17.70;70.90;;;;;;5033988;28;20222;-71
2022/11/25 11:08:11;;;;;;;2.45;2.25;;;17.70;70.90;;;;;;5017846;28;20190;-71
2022/11/25 11:10:37;;;;;;;2.90;2.35;;;17.70;70.90;;;;;;5018022;28;20186;-70
2022/11/25 11:13:20;;;;;;;2.47;2.20;;;17.70;71.00;;;;;;5034376;28;20194;-70
2022/11/25 11:15:47;;;;;;;2.15;1.95;;;17.70;71.00;;;;;;5034247;28;20209;-70
2022/11/25 11:18:23;;;;;;;2.47;1.98;;;17.70;70.90;;;;;;5034807;28;20263;-70
2022/11/25 11:20:53;;;;;;;3.28;2.35;;;17.60;70.90;;;;;;5034918;28;20178;-70
2022/11/25 11:23:20;;;;;;;2.95;2.13;;;17.70;71.00;;;;;;5052137;28;20269;-70
2022/11/25 11:26:08;;;;;;;2.28;2.08;;;17.70;71.00;;;;;;5017941;28;20198;-70
2022/11/25 11:28:35;;;;;;;2.38;2.17;;;17.70;71.00;;;;;;5034446;28;20217;-70
2022/11/25 11:31:33;;;;;;;2.45;2.13;;;17.70;71.10;;;;;;5052078;28;20231;-69
2022/11/25 11:34:29;;;;;;;2.67;2.25;;;17.70;71.10;;;;;;5034444;28;20217;-70
2022/11/25 11:37:21;;;;;;;3.55;2.10;;;17.70;71.20;;;;;;5034447;28;20190;-70
2022/11/25 11:40:24;;;;;;;2.45;2.00;;;17.70;71.10;;;;;;5034232;28;20195;-70
2022/11/25 11:43:04;;;;;;;2.50;2.08;;;17.70;71.20;;;;;;5039620;28;20194;-70
2022/11/25 11:45:54;;;;;;;2.80;2.22;;;17.70;71.20;;;;;;5032117;28;20203;-70
2022/11/25 11:48:38;;;;;;;2.65;2.10;;;17.70;71.20;;;;;;5049684;28;20186;-69
2022/11/25 11:51:28;;;;;;;2.20;2.00;;;17.70;71.20;;;;;;5052032;28;20193;-69
2022/11/25 11:54:32;;;;;;;1.90;1.75;;;17.70;71.10;;;;;;5032489;28;20216;-70
2022/11/25 11:57:49;;;;;;;3.28;2.00;;;17.70;71.20;;;;;;5017886;28;20276;-70
2022/11/25 12:00:19;;;;;;;2.95;2.33;;;17.60;71.10;;;;;;5034391;28;20285;-70
2022/11/25 12:03:11;;;;;;;2.67;2.30;;;17.60;71.10;;;;;;5034140;28;20256;-70
2022/11/25 12:05:38;;;;;;;2.30;2.10;;;17.70;71.20;;;;;;5051885;28;20211;-70
2022/11/25 12:08:17;;;;;;;2.15;1.95;;;17.70;71.30;;;;;;5017702;28;20193;-70
2022/11/25 12:11:10;;;;;;;3.30;2.00;;;17.60;71.10;;;;;;5031947;28;20175;-70
2022/11/25 12:14:04;;;;;;;2.50;1.95;;;17.60;72.00;;;;;;5014107;28;20172;-70
2022/11/25 12:16:45;;;;;;;3.13;2.10;;;17.70;71.30;;;;;;5049596;28;20196;-70
2022/11/25 12:19:35;;;;;;;2.03;1.77;;;17.70;71.30;;;;;;5033990;28;20210;-70
2022/11/25 12:22:18;;;;;;;1.80;1.70;;;17.70;71.30;;;;;;5034097;28;20182;-70
2022/11/25 12:25:18;;;;;;;3.25;2.17;;;17.70;71.30;;;;;;5033530;28;20209;-69
2022/11/25 12:28:07;;;;;;;3.40;2.05;;;17.70;71.30;;;;;;5029606;28;20178;-70
2022/11/25 12:31:09;;;;;;;2.30;2.10;;;17.70;71.30;;;;;;5054293;28;20182;-70
2022/11/25 12:34:09;;;;;;;2.15;1.95;;;17.70;71.30;;;;;;5037459;28;20185;-69
2022/11/25 12:36:43;;;;;;;2.33;1.83;;;17.70;71.40;;;;;;5037605;28;20210;-70
2022/11/25 12:39:31;;;;;;;2.67;2.28;;;17.70;71.40;;;;;;5053841;28;20214;-69
2022/11/25 12:42:03;;;;;;;2.08;1.63;;;17.70;71.40;;;;;;5053647;28;20277;-69
2022/11/25 12:44:59;;;;;;;2.47;2.00;;;17.70;71.40;;;;;;5054977;28;20339;-69
2022/11/25 12:47:25;;;;;;;3.17;2.00;;;17.70;71.50;;;;;;5036909;28;20183;-70
2022/11/25 12:49:54;;;;;;;2.00;1.90;;;17.70;71.50;;;;;;5036688;28;20197;-69
2022/11/25 12:52:42;;;;;;;2.45;1.95;;;17.70;71.40;;;;;;5036671;28;20239;-70
2022/11/25 12:55:09;;;;;;;2.47;2.00;;;17.70;71.50;;;;;;5053285;28;20320;-70
2022/11/25 12:58:23;;;;;;;2.58;1.88;;;17.70;71.60;;;;;;5054449;28;20205;-70
2022/11/25 13:01:46;;;;;;;2.35;1.92;;;17.70;71.50;;;;;;5036630;28;20202;-70
2022/11/25 13:04:47;;;;;;;2.00;1.80;;;17.60;71.40;;;;;;4983337;28;20198;-70
2022/11/25 13:07:24;;;;;;;3.08;1.85;;;17.70;71.60;;;;;;5020118;28;20181;-70
2022/11/25 13:10:35;;;;;;;2.50;1.92;;;17.70;71.60;;;;;;5020070;28;20194;-70
2022/11/25 13:13:25;;;;;;;2.40;2.08;;;17.70;71.60;;;;;;5036412;28;20278;-70
2022/11/25 13:15:53;;;;;;;2.50;2.17;;;17.70;71.50;;;;;;5054179;28;20300;-70
2022/11/25 13:18:24;;;;;;;2.30;2.10;;;17.70;71.60;;;;;;5052818;28;20226;-70
2022/11/25 13:20:53;;;;;;;2.05;1.85;;;17.70;71.60;;;;;;5036289;28;20210;-70
2022/11/25 13:23:28;;;;;;;3.25;2.53;;;17.70;71.60;;;;;;5053780;28;20179;-69
2022/11/25 13:26:31;;;;;;;2.42;2.22;;;17.70;71.70;;;;;;5036123;28;20205;-70